Time;durP1;ratioP1;P1;durP2;ratioP2;P2;SDS_P1;SDS_P2;PMS_P1;PMS_P2;Temp;Humidity;BMP_temperature;BMP_pressure;BME280_temperature;BME280_humidity;BME280_pressure;Samples;Min_cycle;Max_cycle;Signal;HPM_P1;HPM_P2
2023/11/02 00:01:54;;;;;;;4.25;1.23;;;;;;;;;;5029838;28;20033;-81
2023/11/02 00:04:39;;;;;;;1.83;1.17;;;;;;;;;;5034790;28;20143;-80
2023/11/02 00:07:27;;;;;;;2.25;1.08;;;;;;;;;;5035730;28;20027;-80
2023/11/02 00:10:13;;;;;;;2.58;1.33;;;;;;;;;;5026204;28;20033;-79
2023/11/02 00:12:59;;;;;;;1.25;1.00;;;;;;;;;;5035323;28;20394;-79
2023/11/02 00:15:44;;;;;;;3.33;1.00;;;;;;;;;;5036592;28;20029;-79
2023/11/02 00:18:31;;;;;;;3.03;1.23;;;;;;;;;;5034499;28;20029;-79
2023/11/02 00:21:21;;;;;;;4.65;1.42;;;;;;;;;;5030740;28;20583;-79
2023/11/02 00:24:07;;;;;;;5.38;1.17;;;;;;;;;;5034665;28;20025;-79
2023/11/02 00:26:52;;;;;;;5.00;0.95;;;;;;;;;;5014096;28;20030;-79
2023/11/02 00:29:38;;;;;;;4.60;1.70;;;;;;;;;;5032299;28;20028;-79
2023/11/02 00:32:24;;;;;;;6.60;2.65;;;;;;;;;;5028110;28;20037;-79
2023/11/02 00:35:09;;;;;;;3.45;1.75;;;;;;;;;;5035225;28;20028;-80
2023/11/02 00:37:55;;;;;;;4.65;1.33;;;;;;;;;;5036570;28;20240;-79
2023/11/02 00:40:40;;;;;;;3.45;1.10;;;;;;;;;;5034003;28;20318;-80
2023/11/02 00:43:26;;;;;;;3.22;1.10;;;;;;;;;;5035266;28;20025;-80
2023/11/02 00:46:11;;;;;;;3.40;1.23;;;;;;;;;;5035416;28;20463;-80
2023/11/02 00:48:56;;;;;;;4.80;1.35;;;;;;;;;;5034642;28;20028;-81
2023/11/02 00:51:41;;;;;;;1.65;1.10;;;;;;;;;;5032175;28;20094;-79
2023/11/02 00:54:52;;;;;;;3.42;1.25;;;;;;;;;;5034210;28;20822;-81
2023/11/02 00:57:39;;;;;;;3.35;1.05;;;;;;;;;;5031081;28;20060;-81
2023/11/02 01:00:42;;;;;;;1.52;1.05;;;;;;;;;;5035860;28;20049;-81
2023/11/02 01:03:27;;;;;;;2.30;1.60;;;;;;;;;;5009450;28;20029;-80
2023/11/02 01:06:17;;;;;;;3.05;1.40;;;;;;;;;;5034757;28;20068;-80
2023/11/02 01:09:04;;;;;;;5.38;1.52;;;;;;;;;;5035232;28;20061;-80
2023/11/02 01:11:50;;;;;;;2.22;1.10;;;;;;;;;;5035454;28;20112;-80
2023/11/02 01:14:41;;;;;;;2.92;1.33;;;;;;;;;;5034337;28;20021;-81
2023/11/02 01:17:30;;;;;;;5.53;1.42;;;;;;;;;;5034622;28;20498;-80
2023/11/02 01:20:36;;;;;;;3.38;1.67;;;;;;;;;;5023881;28;20033;-79
2023/11/02 01:23:21;;;;;;;4.68;1.67;;;;;;;;;;5035780;28;20040;-79
2023/11/02 01:26:26;;;;;;;2.90;1.33;;;;;;;;;;5048290;28;20486;-80
2023/11/02 01:29:12;;;;;;;2.90;1.38;;;;;;;;;;5034515;28;20075;-79
2023/11/02 01:31:57;;;;;;;2.83;1.35;;;;;;;;;;5024871;28;20025;-79
2023/11/02 01:34:43;;;;;;;5.25;1.15;;;;;;;;;;5033893;28;20097;-80
2023/11/02 01:37:28;;;;;;;4.05;2.03;;;;;;;;;;5034608;28;20036;-79
2023/11/02 01:40:28;;;;;;;2.30;1.17;;;;;;;;;;5034704;28;20024;-79
2023/11/02 01:43:16;;;;;;;4.60;1.70;;;;;;;;;;5034478;28;20036;-79
2023/11/02 01:46:04;;;;;;;4.13;1.20;;;;;;;;;;5033988;28;20036;-78
2023/11/02 01:49:06;;;;;;;2.53;1.10;;;;;;;;;;5034068;28;20067;-80
2023/11/02 01:52:07;;;;;;;1.30;1.13;;;;;;;;;;5036816;28;20039;-81
2023/11/02 01:55:00;;;;;;;5.88;1.10;;;;;;;;;;5028440;28;20114;-80
2023/11/02 01:58:04;;;;;;;1.63;1.13;;;;;;;;;;5037422;28;20029;-82
2023/11/02 02:00:56;;;;;;;1.92;1.10;;;;;;;;;;5038649;28;20127;-81
2023/11/02 02:03:47;;;;;;;2.58;1.30;;;;;;;;;;5030170;28;20124;-81
2023/11/02 02:06:44;;;;;;;0.70;0.70;;;;;;;;;;5030233;28;20117;-81
2023/11/02 02:09:38;;;;;;;2.28;0.95;;;;;;;;;;5043442;28;20033;-80
2023/11/02 02:12:36;;;;;;;1.80;1.17;;;;;;;;;;5047354;28;20025;-80
2023/11/02 02:15:22;;;;;;;4.78;1.48;;;;;;;;;;5028923;28;20112;-81
2023/11/02 02:18:07;;;;;;;2.75;1.30;;;;;;;;;;5038199;28;20403;-80
2023/11/02 02:20:53;;;;;;;4.85;1.45;;;;;;;;;;5036353;28;20119;-80
2023/11/02 02:23:53;;;;;;;2.47;1.20;;;;;;;;;;5038258;28;20037;-80
2023/11/02 02:26:38;;;;;;;;;;;;;;;;;;5034538;28;20037;-80
2023/11/02 02:29:23;;;;;;;2.90;1.30;;;;;;;;;;5038422;28;19986;-80
2023/11/02 02:32:15;;;;;;;4.45;1.40;;;;;;;;;;5037714;28;20247;-80
2023/11/02 02:35:06;;;;;;;1.30;1.00;;;;;;;;;;5037670;28;20021;-80
2023/11/02 02:37:58;;;;;;;3.50;1.17;;;;;;;;;;5033611;28;20025;-80
2023/11/02 02:40:50;;;;;;;1.80;1.27;;;;;;;;;;5036737;28;20059;-81
2023/11/02 02:43:36;;;;;;;1.63;1.10;;;;;;;;;;5036885;28;20041;-81
2023/11/02 02:46:23;;;;;;;3.03;1.30;;;;;;;;;;5037181;28;20032;-80
2023/11/02 02:49:08;;;;;;;4.07;1.45;;;;;;;;;;5038223;28;20025;-81
2023/11/02 02:51:54;;;;;;;3.00;1.00;;;;;;;;;;5036362;28;20025;-80
2023/11/02 02:54:43;;;;;;;2.00;0.98;;;;;;;;;;5023623;28;20060;-80
2023/11/02 02:57:31;;;;;;;2.53;1.15;;;;;;;;;;5028290;28;20033;-81
2023/11/02 03:00:16;;;;;;;3.63;1.15;;;;;;;;;;5027238;28;20041;-79
2023/11/02 03:03:03;;;;;;;1.48;1.20;;;;;;;;;;5034450;28;20252;-81
2023/11/02 03:05:50;;;;;;;2.72;1.33;;;;;;;;;;5036734;28;20072;-81
2023/11/02 03:08:37;;;;;;;4.25;1.63;;;;;;;;;;5033444;28;20088;-80
2023/11/02 03:11:24;;;;;;;4.28;1.20;;;;;;;;;;5035521;28;20069;-82
2023/11/02 03:14:10;;;;;;;2.80;1.23;;;;;;;;;;5024578;28;20111;-81
2023/11/02 03:17:00;;;;;;;3.00;1.38;;;;;;;;;;5032245;28;20040;-80
2023/11/02 03:19:49;;;;;;;2.30;1.10;;;;;;;;;;5034934;28;20033;-81
2023/11/02 03:22:34;;;;;;;1.90;1.10;;;;;;;;;;5029074;28;20442;-81
2023/11/02 03:25:37;;;;;;;3.67;1.30;;;;;;;;;;5035257;28;20036;-81
2023/11/02 03:28:46;;;;;;;2.50;1.50;;;;;;;;;;5031091;28;20549;-80
2023/11/02 03:31:31;;;;;;;2.05;1.13;;;;;;;;;;5030770;28;20467;-81
2023/11/02 03:34:31;;;;;;;3.35;1.33;;;;;;;;;;5034474;28;20032;-81
2023/11/02 03:37:16;;;;;;;;;;;;;;;;;;5034616;28;20051;-80
2023/11/02 03:40:13;;;;;;;2.20;1.60;;;;;;;;;;5033557;28;19927;-81
2023/11/02 03:43:04;;;;;;;5.68;1.45;;;;;;;;;;5035007;28;20029;-80
2023/11/02 03:46:03;;;;;;;4.13;1.33;;;;;;;;;;5035284;28;20049;-79
2023/11/02 03:48:49;;;;;;;;;;;;;;;;;;5035649;28;20033;-80
2023/11/02 03:51:58;;;;;;;1.50;1.17;;;;;;;;;;5036096;28;19912;-80
2023/11/02 03:54:43;;;;;;;1.75;1.23;;;;;;;;;;5048883;28;20033;-80
2023/11/02 03:57:30;;;;;;;1.88;0.95;;;;;;;;;;5036136;28;20033;-79
2023/11/02 04:00:15;;;;;;;2.67;1.20;;;;;;;;;;5037957;28;20598;-79
2023/11/02 04:03:03;;;;;;;1.67;1.13;;;;;;;;;;5030991;28;20483;-79
2023/11/02 04:05:49;;;;;;;3.40;1.25;;;;;;;;;;5027217;28;20102;-80
2023/11/02 04:08:39;;;;;;;6.15;1.20;;;;;;;;;;5032960;28;20029;-80
2023/11/02 04:11:29;;;;;;;4.35;1.25;;;;;;;;;;5034309;28;20033;-80
2023/11/02 04:14:19;;;;;;;1.85;1.30;;;;;;;;;;5034771;28;20148;-80
2023/11/02 04:17:05;;;;;;;3.95;1.42;;;;;;;;;;5032748;28;20103;-79
2023/11/02 04:19:50;;;;;;;1.75;1.10;;;;;;;;;;5028564;28;20055;-81
2023/11/02 04:22:35;;;;;;;3.78;1.23;;;;;;;;;;5024420;28;20157;-79
2023/11/02 04:25:21;;;;;;;3.47;1.48;;;;;;;;;;5035367;28;20525;-79
2023/11/02 04:28:06;;;;;;;3.78;1.63;;;;;;;;;;5034474;28;20028;-81
2023/11/02 04:30:52;;;;;;;3.05;1.58;;;;;;;;;;5034968;28;20025;-81
2023/11/02 04:33:37;;;;;;;6.28;1.30;;;;;;;;;;5035861;28;20188;-81
2023/11/02 04:36:22;;;;;;;4.05;1.30;;;;;;;;;;5034977;28;20025;-81
2023/11/02 04:39:07;;;;;;;3.15;1.20;;;;;;;;;;5020465;28;20033;-81
2023/11/02 04:41:53;;;;;;;2.28;1.35;;;;;;;;;;5034892;28;20086;-81
2023/11/02 04:44:38;;;;;;;2.78;1.85;;;;;;;;;;5028036;28;20057;-82
2023/11/02 04:47:24;;;;;;;2.35;1.00;;;;;;;;;;5034422;28;20369;-81
2023/11/02 04:50:09;;;;;;;4.47;1.67;;;;;;;;;;5035997;28;20027;-81
2023/11/02 04:52:54;;;;;;;3.70;1.70;;;;;;;;;;5034377;28;20029;-80
2023/11/02 04:55:41;;;;;;;2.55;1.42;;;;;;;;;;5035177;28;20025;-80
2023/11/02 04:58:26;;;;;;;3.30;1.33;;;;;;;;;;5033267;28;20055;-80
2023/11/02 05:01:11;;;;;;;4.22;1.42;;;;;;;;;;5019126;28;20027;-80
2023/11/02 05:03:59;;;;;;;2.90;1.40;;;;;;;;;;5029717;28;20017;-79
2023/11/02 05:06:45;;;;;;;2.33;1.10;;;;;;;;;;5034452;28;20025;-80
2023/11/02 05:09:30;;;;;;;2.78;1.52;;;;;;;;;;5034772;28;20095;-80
2023/11/02 05:12:15;;;;;;;4.65;1.60;;;;;;;;;;5035395;28;20059;-80
2023/11/02 05:15:00;;;;;;;1.77;1.38;;;;;;;;;;5032705;28;20526;-81
2023/11/02 05:17:45;;;;;;;2.47;1.45;;;;;;;;;;5033684;28;20478;-80
2023/11/02 05:20:31;;;;;;;3.45;1.23;;;;;;;;;;5034892;28;20017;-80
2023/11/02 05:23:16;;;;;;;3.72;1.33;;;;;;;;;;5026555;28;20021;-80
2023/11/02 05:26:02;;;;;;;1.42;1.10;;;;;;;;;;5027809;28;20493;-80
2023/11/02 05:28:47;;;;;;;1.60;1.02;;;;;;;;;;5038913;28;20033;-80
2023/11/02 05:31:32;;;;;;;2.45;1.15;;;;;;;;;;5037236;28;20045;-80
2023/11/02 05:34:18;;;;;;;2.65;1.80;;;;;;;;;;5037329;28;20029;-80
2023/11/02 05:37:04;;;;;;;1.48;0.93;;;;;;;;;;5034492;28;20032;-80
2023/11/02 05:39:50;;;;;;;2.03;1.13;;;;;;;;;;5038282;28;20108;-81
2023/11/02 05:42:35;;;;;;;1.88;1.00;;;;;;;;;;5036362;28;20033;-81
2023/11/02 05:45:21;;;;;;;3.90;1.30;;;;;;;;;;5038405;28;20036;-80
2023/11/02 05:48:06;;;;;;;2.35;1.40;;;;;;;;;;5037515;28;20021;-79
2023/11/02 05:50:51;;;;;;;3.63;1.10;;;;;;;;;;5037792;28;20033;-81
2023/11/02 05:53:37;;;;;;;1.98;1.27;;;;;;;;;;5037120;28;20029;-81
2023/11/02 05:56:22;;;;;;;5.50;1.42;;;;;;;;;;5039324;28;20021;-79
2023/11/02 05:59:07;;;;;;;2.50;1.33;;;;;;;;;;5034945;28;20047;-80
2023/11/02 06:01:54;;;;;;;2.72;1.35;;;;;;;;;;5035692;28;20130;-81
2023/11/02 06:04:39;;;;;;;2.03;1.33;;;;;;;;;;5036687;28;20091;-79
2023/11/02 06:07:25;;;;;;;2.28;1.40;;;;;;;;;;5036013;28;20108;-80
2023/11/02 06:10:10;;;;;;;2.50;1.52;;;;;;;;;;5037301;28;20021;-80
2023/11/02 06:12:55;;;;;;;4.20;1.30;;;;;;;;;;5038420;28;20025;-83
2023/11/02 06:15:41;;;;;;;2.58;1.23;;;;;;;;;;5038510;28;20037;-82
2023/11/02 06:18:26;;;;;;;3.78;1.33;;;;;;;;;;5030148;28;20040;-82
2023/11/02 06:21:12;;;;;;;3.92;1.88;;;;;;;;;;5036784;28;20499;-82
2023/11/02 06:23:57;;;;;;;1.35;1.00;;;;;;;;;;5031316;28;20060;-86
2023/11/02 06:26:43;;;;;;;2.25;1.17;;;;;;;;;;5039613;28;20028;-84
2023/11/02 06:29:28;;;;;;;2.55;1.55;;;;;;;;;;5032247;28;20057;-84
2023/11/02 06:32:13;;;;;;;7.30;1.80;;;;;;;;;;5045183;28;20574;-83
2023/11/02 06:34:58;;;;;;;1.58;1.08;;;;;;;;;;5037751;28;20033;-84
2023/11/02 06:37:53;;;;;;;6.75;1.40;;;;;;;;;;5035877;28;20036;-85
2023/11/02 06:40:41;;;;;;;3.35;1.63;;;;;;;;;;5004428;28;20038;-84
2023/11/02 06:43:27;;;;;;;3.28;1.60;;;;;;;;;;5024376;28;20094;-85
2023/11/02 06:46:12;;;;;;;4.72;2.03;;;;;;;;;;5037393;28;20027;-84
2023/11/02 06:48:57;;;;;;;1.30;1.13;;;;;;;;;;5038411;28;20060;-83
2023/11/02 06:51:43;;;;;;;2.85;1.75;;;;;;;;;;5027397;28;20120;-83
2023/11/02 06:54:28;;;;;;;2.75;1.30;;;;;;;;;;5024368;28;20064;-83
2023/11/02 06:57:13;;;;;;;3.22;1.40;;;;;;;;;;5051113;28;20111;-84
2023/11/02 06:59:59;;;;;;;3.22;1.42;;;;;;;;;;5038041;28;20049;-84
2023/11/02 07:02:44;;;;;;;4.13;1.38;;;;;;;;;;5023765;28;20026;-83
2023/11/02 07:05:29;;;;;;;1.85;1.38;;;;;;;;;;5027309;28;20593;-82
2023/11/02 07:08:14;;;;;;;5.47;2.63;;;;;;;;;;5035973;28;20025;-85
2023/11/02 07:11:00;;;;;;;4.32;1.35;;;;;;;;;;5020598;28;20017;-83
2023/11/02 07:13:45;;;;;;;6.57;1.70;;;;;;;;;;5026773;28;20021;-83
2023/11/02 07:16:30;;;;;;;2.78;1.35;;;;;;;;;;5035122;28;20106;-82
2023/11/02 07:19:16;;;;;;;4.05;1.77;;;;;;;;;;5031833;28;20035;-80
2023/11/02 07:22:01;;;;;;;5.88;1.95;;;;;;;;;;5033458;28;20086;-81
2023/11/02 07:24:46;;;;;;;2.60;1.55;;;;;;;;;;5031967;28;20096;-79
2023/11/02 07:27:31;;;;;;;4.35;1.80;;;;;;;;;;5032439;28;20427;-82
2023/11/02 07:30:17;;;;;;;4.22;1.75;;;;;;;;;;5032623;28;20086;-82
2023/11/02 07:33:03;;;;;;;3.13;1.50;;;;;;;;;;5039804;28;20025;-82
2023/11/02 07:35:48;;;;;;;4.57;2.20;;;;;;;;;;5034546;28;20104;-82
2023/11/02 07:38:34;;;;;;;6.25;3.08;;;;;;;;;;5031073;28;20042;-81
2023/11/02 07:41:20;;;;;;;3.55;1.63;;;;;;;;;;5033025;28;20454;-81
2023/11/02 07:44:05;;;;;;;6.13;1.60;;;;;;;;;;5033594;28;20025;-81
2023/11/02 07:46:51;;;;;;;2.08;1.25;;;;;;;;;;5035658;28;20036;-81
2023/11/02 07:49:38;;;;;;;4.07;1.92;;;;;;;;;;5033000;28;20052;-82
2023/11/02 07:52:24;;;;;;;4.72;2.00;;;;;;;;;;5032460;28;20025;-81
2023/11/02 07:55:10;;;;;;;3.03;1.38;;;;;;;;;;5030877;28;20087;-81
2023/11/02 07:57:56;;;;;;;2.83;1.75;;;;;;;;;;5033006;28;20036;-80
2023/11/02 08:00:41;;;;;;;5.05;1.58;;;;;;;;;;5034673;28;20473;-83
2023/11/02 08:03:27;;;;;;;4.28;2.05;;;;;;;;;;5029107;28;20033;-84
2023/11/02 08:06:12;;;;;;;3.03;1.52;;;;;;;;;;5033794;28;20079;-83
2023/11/02 08:08:57;;;;;;;3.95;1.83;;;;;;;;;;5032817;28;20322;-83
2023/11/02 08:11:42;;;;;;;3.58;1.65;;;;;;;;;;5031711;28;20376;-83
2023/11/02 08:14:27;;;;;;;3.75;1.48;;;;;;;;;;5033104;28;20503;-83
2023/11/02 08:17:19;;;;;;;2.15;1.20;;;;;;;;;;5031583;28;20025;-83
2023/11/02 08:20:05;;;;;;;4.93;1.75;;;;;;;;;;5031066;28;20016;-82
2023/11/02 08:22:50;;;;;;;2.60;1.20;;;;;;;;;;5030247;28;20070;-84
2023/11/02 08:25:35;;;;;;;6.80;2.25;;;;;;;;;;5033054;28;20071;-81
2023/11/02 08:28:21;;;;;;;4.05;1.58;;;;;;;;;;5031412;28;20057;-83
2023/11/02 08:31:06;;;;;;;3.75;1.80;;;;;;;;;;5032637;28;20032;-82
2023/11/02 08:33:51;;;;;;;2.45;1.30;;;;;;;;;;5027960;28;20078;-83
2023/11/02 08:36:38;;;;;;;3.25;1.58;;;;;;;;;;5031996;28;20017;-82
2023/11/02 08:39:23;;;;;;;6.07;2.00;;;;;;;;;;5033249;28;20110;-81
2023/11/02 08:42:08;;;;;;;3.90;1.75;;;;;;;;;;5032937;28;20082;-81
2023/11/02 08:44:54;;;;;;;5.25;1.42;;;;;;;;;;5031536;28;20112;-82
2023/11/02 08:47:39;;;;;;;6.05;1.85;;;;;;;;;;5034285;28;20442;-81
2023/11/02 08:50:25;;;;;;;2.45;1.50;;;;;;;;;;5035557;28;20044;-83
2023/11/02 08:53:10;;;;;;;4.03;2.42;;;;;;;;;;5037623;28;20118;-82
2023/11/02 08:55:57;;;;;;;3.55;1.95;;;;;;;;;;5026124;28;20041;-83
2023/11/02 08:58:43;;;;;;;3.75;1.70;;;;;;;;;;5029603;28;20045;-83
2023/11/02 09:01:28;;;;;;;5.68;1.80;;;;;;;;;;5045608;28;20032;-82
2023/11/02 09:04:14;;;;;;;6.85;1.95;;;;;;;;;;5033300;28;21476;-82
2023/11/02 09:07:00;;;;;;;4.68;1.80;;;;;;;;;;5034192;28;20029;-82
2023/11/02 09:09:45;;;;;;;4.57;1.55;;;;;;;;;;5032834;28;20020;-85
2023/11/02 09:12:30;;;;;;;5.53;1.70;;;;;;;;;;5027108;28;20025;-84
2023/11/02 09:15:15;;;;;;;4.25;1.90;;;;;;;;;;5032794;28;20033;-85
2023/11/02 09:18:00;;;;;;;4.15;1.80;;;;;;;;;;5033900;28;20124;-83
2023/11/02 09:20:46;;;;;;;6.13;2.00;;;;;;;;;;5032856;28;21826;-83
2023/11/02 09:23:34;;;;;;;4.90;1.70;;;;;;;;;;5032791;28;20021;-83
2023/11/02 09:26:20;;;;;;;3.90;1.92;;;;;;;;;;5034922;28;20530;-83
2023/11/02 09:29:05;;;;;;;6.32;2.10;;;;;;;;;;5036140;28;20036;-83
2023/11/02 09:31:51;;;;;;;4.72;2.65;;;;;;;;;;5037456;28;20043;-79
2023/11/02 09:34:38;;;;;;;5.78;2.30;;;;;;;;;;5035096;28;20027;-84
2023/11/02 09:37:23;;;;;;;3.45;2.20;;;;;;;;;;5033562;28;20174;-83
2023/11/02 09:40:10;;;;;;;4.13;2.47;;;;;;;;;;5032577;28;20490;-82
2023/11/02 09:42:55;;;;;;;4.40;2.50;;;;;;;;;;5031346;28;20030;-84
2023/11/02 09:45:40;;;;;;;6.88;2.05;;;;;;;;;;5034754;28;20055;-83
2023/11/02 09:48:26;;;;;;;4.68;2.20;;;;;;;;;;5033906;28;20108;-84
2023/11/02 09:51:11;;;;;;;5.28;2.20;;;;;;;;;;5034146;28;20039;-83
2023/11/02 09:53:56;;;;;;;4.90;2.22;;;;;;;;;;5032942;28;20021;-83
2023/11/02 09:56:42;;;;;;;7.50;2.90;;;;;;;;;;5034391;28;20032;-83
2023/11/02 09:59:28;;;;;;;2.55;2.10;;;;;;;;;;5033374;28;20072;-84
2023/11/02 10:02:13;;;;;;;4.95;2.50;;;;;;;;;;5035952;28;20106;-84
2023/11/02 10:04:59;;;;;;;4.85;2.00;;;;;;;;;;5033747;28;20024;-84
2023/11/02 10:07:47;;;;;;;10.38;2.38;;;;;;;;;;5033532;28;20024;-83
2023/11/02 10:10:33;;;;;;;3.40;2.10;;;;;;;;;;5050344;28;20040;-84
2023/11/02 10:13:18;;;;;;;3.25;1.60;;;;;;;;;;5037971;28;20041;-84
2023/11/02 10:16:04;;;;;;;2.42;1.27;;;;;;;;;;5036541;28;20056;-82
2023/11/02 10:18:49;;;;;;;2.47;1.15;;;;;;;;;;5036625;28;20089;-81
2023/11/02 10:21:36;;;;;;;1.52;1.00;;;;;;;;;;5038956;28;20044;-83
2023/11/02 10:24:28;;;;;;;2.92;1.50;;;;;;;;;;5037371;28;20017;-82
2023/11/02 10:27:15;;;;;;;4.38;1.10;;;;;;;;;;5036559;28;20045;-82
2023/11/02 10:30:02;;;;;;;2.35;1.05;;;;;;;;;;5033717;28;20482;-82
2023/11/02 10:32:47;;;;;;;1.38;0.98;;;;;;;;;;5037138;28;20025;-84
2023/11/02 10:35:33;;;;;;;2.78;1.08;;;;;;;;;;5036038;28;20116;-82
2023/11/02 10:38:20;;;;;;;1.95;1.00;;;;;;;;;;5037514;28;20032;-82
2023/11/02 10:41:07;;;;;;;1.23;1.02;;;;;;;;;;5037621;28;20044;-82
2023/11/02 10:43:55;;;;;;;1.98;1.02;;;;;;;;;;5033653;28;20028;-82
2023/11/02 10:46:41;;;;;;;2.05;0.93;;;;;;;;;;5046987;28;20440;-83
2023/11/02 10:49:32;;;;;;;0.98;0.80;;;;;;;;;;5034658;28;20485;-84
2023/11/02 10:52:21;;;;;;;2.33;1.10;;;;;;;;;;5036385;28;20541;-84
2023/11/02 10:55:18;;;;;;;3.78;0.90;;;;;;;;;;5037937;28;20051;-82
2023/11/02 10:58:04;;;;;;;1.05;0.90;;;;;;;;;;5037462;28;20055;-81
2023/11/02 11:00:50;;;;;;;2.08;1.17;;;;;;;;;;5031833;28;20059;-81
2023/11/02 11:03:35;;;;;;;2.05;1.00;;;;;;;;;;5035726;28;20433;-81
2023/11/02 11:06:23;;;;;;;2.20;0.98;;;;;;;;;;5036582;28;20029;-83
2023/11/02 11:09:32;;;;;;;1.40;0.77;;;;;;;;;;5037154;28;20047;-85
2023/11/02 11:12:18;;;;;;;2.13;1.40;;;;;;;;;;5039144;28;20037;-85
2023/11/02 11:15:03;;;;;;;1.25;1.15;;;;;;;;;;5036873;28;20029;-86
2023/11/02 11:17:49;;;;;;;3.80;1.60;;;;;;;;;;5053131;28;20098;-82
2023/11/02 11:20:34;;;;;;;3.97;1.30;;;;;;;;;;5038075;28;20089;-84
2023/11/02 11:23:20;;;;;;;3.80;1.60;;;;;;;;;;5033985;28;20029;-84
2023/11/02 11:26:06;;;;;;;5.50;1.55;;;;;;;;;;5037142;28;20021;-82
2023/11/02 11:28:52;;;;;;;2.28;1.10;;;;;;;;;;5037792;28;20028;-81
2023/11/02 11:31:53;;;;;;;1.75;0.90;;;;;;;;;;5038523;28;20467;-83
2023/11/02 11:34:54;;;;;;;3.90;1.80;;;;;;;;;;5029181;28;20028;-85
2023/11/02 11:37:43;;;;;;;6.85;1.38;;;;;;;;;;5037453;28;20471;-82
2023/11/02 11:40:32;;;;;;;0.70;0.70;;;;;;;;;;5034027;28;20036;-88
2023/11/02 11:43:18;;;;;;;2.53;0.70;;;;;;;;;;5032895;28;20017;-87
2023/11/02 11:46:08;;;;;;;1.33;0.70;;;;;;;;;;5036971;28;20040;-88
2023/11/02 11:48:53;;;;;;;2.17;0.90;;;;;;;;;;5033793;28;20017;-87
2023/11/02 11:51:40;;;;;;;2.05;0.77;;;;;;;;;;5039259;28;20376;-84
2023/11/02 11:54:26;;;;;;;2.00;0.82;;;;;;;;;;5038627;28;20382;-86
2023/11/02 11:57:31;;;;;;;1.40;1.00;;;;;;;;;;5036395;28;20100;-86
2023/11/02 12:00:17;;;;;;;1.73;0.70;;;;;;;;;;5049620;28;20044;-85
2023/11/02 12:03:05;;;;;;;4.03;1.50;;;;;;;;;;5035099;28;20044;-86
2023/11/02 12:05:50;;;;;;;2.15;0.90;;;;;;;;;;5034804;28;20128;-87
2023/11/02 12:08:42;;;;;;;1.08;0.60;;;;;;;;;;5035672;28;20029;-85
2023/11/02 12:11:27;;;;;;;1.90;1.10;;;;;;;;;;5056126;28;20044;-78
2023/11/02 12:14:22;;;;;;;0.95;0.80;;;;;;;;;;5055284;28;20044;-86
2023/11/02 12:17:07;;;;;;;3.05;0.90;;;;;;;;;;5068007;28;20047;-87
2023/11/02 12:19:53;;;;;;;2.05;0.88;;;;;;;;;;5055397;28;20068;-85
2023/11/02 12:22:47;;;;;;;3.03;1.00;;;;;;;;;;5067480;28;20031;-85
2023/11/02 12:25:32;;;;;;;2.10;0.88;;;;;;;;;;5053686;28;20063;-83
2023/11/02 12:28:19;;;;;;;1.05;0.80;;;;;;;;;;5029009;28;20106;-86
2023/11/02 12:31:04;;;;;;;2.05;0.90;;;;;;;;;;5036201;28;20044;-84
2023/11/02 12:33:50;;;;;;;0.93;0.70;;;;;;;;;;5034594;28;20025;-82
2023/11/02 12:36:35;;;;;;;1.50;0.75;;;;;;;;;;5036502;28;20056;-83
2023/11/02 12:39:21;;;;;;;2.03;1.00;;;;;;;;;;5033248;28;20036;-83
2023/11/02 12:42:09;;;;;;;2.22;1.05;;;;;;;;;;5032645;28;20025;-82
2023/11/02 12:44:59;;;;;;;4.05;1.00;;;;;;;;;;5031774;28;20025;-83
2023/11/02 12:47:44;;;;;;;1.33;1.00;;;;;;;;;;5031452;28;20206;-83
2023/11/02 12:50:32;;;;;;;2.35;1.10;;;;;;;;;;5030250;28;20133;-83
2023/11/02 12:53:30;;;;;;;1.55;0.80;;;;;;;;;;5034060;28;20032;-84
2023/11/02 12:56:18;;;;;;;2.92;1.20;;;;;;;;;;5034852;28;20414;-83
2023/11/02 12:59:06;;;;;;;3.20;1.10;;;;;;;;;;5035606;28;20045;-85
2023/11/02 13:01:53;;;;;;;2.13;1.02;;;;;;;;;;5032406;28;20037;-86
2023/11/02 13:04:47;;;;;;;3.97;1.15;;;;;;;;;;5039531;28;20040;-84
2023/11/02 13:07:33;;;;;;;2.25;1.20;;;;;;;;;;5032995;28;20077;-85
2023/11/02 13:10:20;;;;;;;1.88;1.05;;;;;;;;;;5033831;28;20086;-84
2023/11/02 13:13:07;;;;;;;2.05;0.90;;;;;;;;;;5037150;28;20025;-86
2023/11/02 13:15:52;;;;;;;0.95;0.90;;;;;;;;;;5036412;28;20110;-84
2023/11/02 13:18:46;;;;;;;2.22;0.90;;;;;;;;;;5038139;28;20086;-83
2023/11/02 13:21:31;;;;;;;2.33;1.00;;;;;;;;;;5032304;28;20029;-85
2023/11/02 13:24:17;;;;;;;2.20;0.90;;;;;;;;;;5030786;28;20028;-85
2023/11/02 13:27:04;;;;;;;3.33;1.10;;;;;;;;;;5033378;28;20021;-86
2023/11/02 13:29:49;;;;;;;3.30;1.30;;;;;;;;;;5032590;28;20522;-84
2023/11/02 13:32:35;;;;;;;2.47;1.13;;;;;;;;;;5030889;28;20478;-84
2023/11/02 13:35:22;;;;;;;1.42;1.00;;;;;;;;;;5047810;28;20036;-81
2023/11/02 13:38:07;;;;;;;2.83;1.20;;;;;;;;;;5031154;28;20379;-81
2023/11/02 13:40:53;;;;;;;5.57;1.10;;;;;;;;;;5029650;28;20036;-82
2023/11/02 13:43:38;;;;;;;5.60;1.92;;;;;;;;;;5029660;28;20068;-82
2023/11/02 13:46:23;;;;;;;2.70;1.05;;;;;;;;;;5035290;28;20106;-82
2023/11/02 13:49:09;;;;;;;1.25;1.00;;;;;;;;;;5037171;28;20061;-81
2023/11/02 13:51:54;;;;;;;4.20;1.20;;;;;;;;;;5036474;28;20024;-82
2023/11/02 13:54:39;;;;;;;2.92;1.08;;;;;;;;;;5031614;28;20045;-81
2023/11/02 13:57:24;;;;;;;1.77;0.80;;;;;;;;;;5035186;28;20082;-81
2023/11/02 14:00:11;;;;;;;2.58;1.00;;;;;;;;;;5031495;28;20044;-82
2023/11/02 14:02:57;;;;;;;4.60;1.30;;;;;;;;;;5035869;28;20017;-80
2023/11/02 14:05:42;;;;;;;1.63;0.85;;;;;;;;;;5033097;28;20094;-82
2023/11/02 14:08:27;;;;;;;2.47;1.85;;;;;;;;;;5034004;28;20032;-80
2023/11/02 14:11:13;;;;;;;2.63;1.00;;;;;;;;;;5055263;28;20100;-82
2023/11/02 14:13:58;;;;;;;2.17;1.20;;;;;;;;;;5031782;28;20082;-82
2023/11/02 14:16:43;;;;;;;1.83;0.77;;;;;;;;;;5032832;28;20510;-81
2023/11/02 14:19:30;;;;;;;3.45;1.48;;;;;;;;;;5032940;28;20048;-82
2023/11/02 14:22:16;;;;;;;2.25;1.05;;;;;;;;;;5014704;28;20025;-81
2023/11/02 14:25:02;;;;;;;4.15;1.10;;;;;;;;;;5030522;28;20434;-82
2023/11/02 14:27:47;;;;;;;2.88;1.30;;;;;;;;;;5034081;28;20033;-80
2023/11/02 14:30:32;;;;;;;2.95;0.98;;;;;;;;;;5035168;28;20037;-80
2023/11/02 14:33:18;;;;;;;3.63;1.08;;;;;;;;;;5031389;28;20475;-81
2023/11/02 14:36:06;;;;;;;2.05;0.80;;;;;;;;;;5034072;28;20032;-82
2023/11/02 14:38:52;;;;;;;2.75;1.33;;;;;;;;;;5032624;28;20063;-82
2023/11/02 14:41:38;;;;;;;0.73;0.70;;;;;;;;;;5031996;28;20025;-82
2023/11/02 14:44:23;;;;;;;1.52;0.93;;;;;;;;;;5034824;28;20029;-81
2023/11/02 14:47:12;;;;;;;2.20;0.90;;;;;;;;;;5030971;28;20250;-81
2023/11/02 14:49:58;;;;;;;1.40;0.88;;;;;;;;;;5034138;28;20043;-82
2023/11/02 14:52:45;;;;;;;1.75;0.70;;;;;;;;;;5035898;28;20087;-81
2023/11/02 14:55:30;;;;;;;1.10;0.90;;;;;;;;;;5036888;28;20033;-81
2023/11/02 14:58:16;;;;;;;2.20;0.88;;;;;;;;;;5028569;28;20499;-81
2023/11/02 15:01:02;;;;;;;3.08;1.00;;;;;;;;;;5034478;28;20545;-82
2023/11/02 15:03:47;;;;;;;1.50;0.88;;;;;;;;;;5036777;28;20021;-81
2023/11/02 15:06:32;;;;;;;2.08;0.90;;;;;;;;;;5031860;28;21010;-81
2023/11/02 15:09:18;;;;;;;1.30;0.90;;;;;;;;;;5035966;28;20039;-82
2023/11/02 15:12:04;;;;;;;1.42;0.70;;;;;;;;;;5034285;28;20040;-82
2023/11/02 15:14:49;;;;;;;1.67;0.95;;;;;;;;;;5031781;28;20636;-81
2023/11/02 15:17:35;;;;;;;1.10;0.88;;;;;;;;;;5032458;28;20060;-82
2023/11/02 15:20:41;;;;;;;1.75;0.95;;;;;;;;;;5035342;28;20021;-82
2023/11/02 15:26:44;;;;;;;1.48;0.90;;;;;;;;;;5031564;28;20060;-82
2023/11/02 15:29:30;;;;;;;4.10;1.20;;;;;;;;;;5034273;28;20104;-80
2023/11/02 15:32:15;;;;;;;3.13;0.90;;;;;;;;;;5033915;28;20042;-82
2023/11/02 15:35:00;;;;;;;4.53;1.00;;;;;;;;;;5036950;28;20037;-80
2023/11/02 15:37:45;;;;;;;0.73;0.73;;;;;;;;;;5036519;28;20058;-81
2023/11/02 15:40:30;;;;;;;3.33;1.23;;;;;;;;;;5033675;28;20033;-80
2023/11/02 15:43:16;;;;;;;2.13;0.95;;;;;;;;;;5037574;28;20032;-81
2023/11/02 15:46:05;;;;;;;1.73;0.80;;;;;;;;;;5035753;28;20021;-81
2023/11/02 15:48:50;;;;;;;3.35;1.48;;;;;;;;;;5036508;28;20020;-81
2023/11/02 15:51:43;;;;;;;1.10;0.85;;;;;;;;;;5034578;28;20041;-81
2023/11/02 15:54:28;;;;;;;2.33;0.90;;;;;;;;;;5035732;28;20028;-80
2023/11/02 15:57:15;;;;;;;2.75;1.00;;;;;;;;;;5036114;28;20033;-81
2023/11/02 16:00:01;;;;;;;1.25;1.00;;;;;;;;;;5036270;28;20075;-81
2023/11/02 16:02:50;;;;;;;1.40;0.90;;;;;;;;;;5037879;28;20065;-80
2023/11/02 16:05:36;;;;;;;1.27;0.98;;;;;;;;;;5036414;28;20108;-81
2023/11/02 16:08:22;;;;;;;1.67;0.80;;;;;;;;;;5036754;28;20110;-81
2023/11/02 16:11:07;;;;;;;1.10;0.80;;;;;;;;;;5035988;28;20017;-81
2023/11/02 16:13:52;;;;;;;1.10;0.90;;;;;;;;;;5034567;28;20021;-81
2023/11/02 16:16:38;;;;;;;0.98;0.82;;;;;;;;;;5034019;28;20108;-80
2023/11/02 16:19:28;;;;;;;2.10;1.20;;;;;;;;;;5036149;28;20120;-80
2023/11/02 16:22:14;;;;;;;2.33;1.00;;;;;;;;;;5036316;28;20013;-79
2023/11/02 16:24:59;;;;;;;2.55;1.13;;;;;;;;;;5029898;28;20111;-80
2023/11/02 16:27:47;;;;;;;2.38;1.15;;;;;;;;;;5020747;28;20094;-80
2023/11/02 16:30:34;;;;;;;6.57;0.90;;;;;;;;;;5034956;28;20507;-80
2023/11/02 16:33:19;;;;;;;4.70;1.40;;;;;;;;;;5035986;28;20082;-80
2023/11/02 16:36:07;;;;;;;1.98;1.30;;;;;;;;;;5036266;28;20253;-80
2023/11/02 16:38:53;;;;;;;2.63;1.30;;;;;;;;;;5036243;28;20043;-80
2023/11/02 16:41:42;;;;;;;2.00;1.20;;;;;;;;;;5034132;28;20025;-81
2023/11/02 16:44:28;;;;;;;;;;;;;;;;;;5034908;28;20036;-81
2023/11/02 16:47:13;;;;;;;4.13;1.55;;;;;;;;;;5036149;28;19999;-82